Spirit Of Brisbane — 29436QE — position and weather

sailwx.info

Track history (hours):
 
Tides and Currents Weather Stations Pressure Air Temp Water Temp Dewpoint Dewpoint Depression Visibility Wind Speed Wind Dir Waves Ship Positions

Spirit Of Brisbane

Last reported at 2017-Sep-03 05:55 UTC. Time now 2017-Sep-24 16:02 UTC.
Position S 27°28' E 153°02'.
Warning: this ship's position is 21 days out of date.

Length 24 m.

Type: Passenger vessel. MMSI: 503586200.

Date/timePositionNaut miles runAvg speedWind from/ knotsBaromVisibWave heightAir tempDewpointWater temp
2017-Sep-03 05:55S 27°28' E 153°02'1 0.1
2017-Sep-02 08:26S 27°28' E 153°03'3 0.3
2017-Sep-01 23:41S 27°27' E 153°06'0 0.0
2017-Sep-01 23:29S 27°27' E 153°06'0 0.0
2017-Sep-01 23:00S 27°27' E 153°06'0 0.0
2017-Sep-01 22:31S 27°27' E 153°06'0 0.0
2017-Sep-01 21:58S 27°27' E 153°06'0 0.0
2017-Sep-01 21:31S 27°27' E 153°06'0 0.0
2017-Sep-01 21:01S 27°27' E 153°06'0 0.0
2017-Sep-01 20:31S 27°27' E 153°06'0 0.0
2017-Sep-01 20:01S 27°27' E 153°06'0 0.0
2017-Sep-01 19:31S 27°27' E 153°06'0 0.0
2017-Sep-01 19:01S 27°27' E 153°06'0 0.0
2017-Sep-01 18:31S 27°27' E 153°06'0 0.0
2017-Sep-01 18:01S 27°27' E 153°06'0 0.0
2017-Sep-01 17:31S 27°27' E 153°06'0 0.0
2017-Sep-01 17:01S 27°27' E 153°06'0 0.0
2017-Sep-01 16:31S 27°27' E 153°06'0 0.0
2017-Sep-01 16:01S 27°27' E 153°06'0 0.0
2017-Sep-01 15:31S 27°27' E 153°06'0 0.0
2017-Sep-01 15:01S 27°27' E 153°06'0 0.0
2017-Sep-01 14:31S 27°27' E 153°06'0 0.0
2017-Sep-01 14:01S 27°27' E 153°06'0 0.0
2017-Sep-01 13:31S 27°27' E 153°06'0 0.0
2017-Sep-01 13:01S 27°27' E 153°06'0 0.0
2017-Sep-01 12:31S 27°27' E 153°06'0 0.0
2017-Sep-01 12:01S 27°27' E 153°06'0 0.0
2017-Sep-01 11:31S 27°27' E 153°06'0 0.0
2017-Sep-01 11:01S 27°27' E 153°06'0 0.0
2017-Sep-01 10:31S 27°27' E 153°06'0 0.0
2017-Sep-01 10:01S 27°27' E 153°06'0 0.0
2017-Sep-01 09:31S 27°27' E 153°06'0 0.2
2017-Sep-01 09:00S 27°27' E 153°06'4 5.7
2017-Sep-01 08:20S 27°28' E 153°02'0 1.4
2017-Sep-01 07:59S 27°28' E 153°02'0 0.6
2017-Sep-01 07:12S 27°28' E 153°02'1 0.1
2017-Aug-31 08:09S 27°28' E 153°03'0 0.0
2017-Aug-30 09:28S 27°28' E 153°03'1 2.7
2017-Aug-30 09:00S 27°26' E 153°03'0 0.5
2017-Aug-30 08:30S 27°26' E 153°04'2 3.8
2017-Aug-30 07:54S 27°28' E 153°02'0 0.0
2017-Aug-30 06:39S 27°28' E 153°02'1 0.1
2017-Aug-29 20:33S 27°28' E 153°03'0 0.0
2017-Aug-29 17:23S 27°28' E 153°03'0 0.0
2017-Aug-29 16:56S 27°28' E 153°03'0 0.0
2017-Aug-29 16:29S 27°28' E 153°03'0 0.0
2017-Aug-29 09:00S 27°28' E 153°03'0 0.0
2017-Aug-29 08:22S 27°28' E 153°03'1 1.6
2017-Aug-29 07:59S 27°27' E 153°03'2 3.1
2017-Aug-29 07:26S 27°27' E 153°05'2 0.2
2017-Aug-28 20:19S 27°28' E 153°03'0 0.0
2017-Aug-28 19:54S 27°28' E 153°03'0 0.0
2017-Aug-28 19:30S 27°28' E 153°03'0 0.0
2017-Aug-28 19:01S 27°28' E 153°03'0 0.0
2017-Aug-28 18:31S 27°28' E 153°03'0 0.0
2017-Aug-28 17:50S 27°28' E 153°03'0 0.0
2017-Aug-28 17:30S 27°28' E 153°03'0 0.0
2017-Aug-28 17:00S 27°28' E 153°03'0 0.0
2017-Aug-28 16:31S 27°28' E 153°03'0 0.0
2017-Aug-28 16:00S 27°28' E 153°03'0 0.0
2017-Aug-28 15:31S 27°28' E 153°03'0 0.0
2017-Aug-28 15:00S 27°28' E 153°03'0 0.0
2017-Aug-28 14:30S 27°28' E 153°03'0 0.0
2017-Aug-28 14:00S 27°28' E 153°03'0 0.0
2017-Aug-28 13:29S 27°28' E 153°03'0 0.0
2017-Aug-28 09:29S 27°28' E 153°03'1 0.5
2017-Aug-28 08:10S 27°27' E 153°03'1 2.6
2017-Aug-28 07:52S 27°28' E 153°03'3 0.3
2017-Aug-27 22:11S 27°27' E 153°06'0 0.0
2017-Aug-27 21:59S 27°27' E 153°06'0 0.1
2017-Aug-27 21:30S 27°27' E 153°06'0 0.2
2017-Aug-27 21:00S 27°27' E 153°06'0 0.0
2017-Aug-27 20:30S 27°27' E 153°06'0 0.0
2017-Aug-27 20:01S 27°27' E 153°06'0 0.0
2017-Aug-27 19:31S 27°27' E 153°06'0 0.0
2017-Aug-27 19:01S 27°27' E 153°06'0 0.0
2017-Aug-27 18:31S 27°27' E 153°06'0 0.0
2017-Aug-27 18:01S 27°27' E 153°06'0 0.0
2017-Aug-27 17:31S 27°27' E 153°06'0 0.0
2017-Aug-27 17:01S 27°27' E 153°06'0 0.0
2017-Aug-27 16:31S 27°27' E 153°06'0 0.0
2017-Aug-27 16:01S 27°27' E 153°06'0 0.0
2017-Aug-27 15:31S 27°27' E 153°06'0 0.0
2017-Aug-27 15:01S 27°27' E 153°06'0 0.0
2017-Aug-27 14:31S 27°27' E 153°06'0 0.0
2017-Aug-27 14:01S 27°27' E 153°06'0 0.0
2017-Aug-27 13:31S 27°27' E 153°06'0 0.0
2017-Aug-27 13:01S 27°27' E 153°06'0 0.0
2017-Aug-27 12:31S 27°27' E 153°06'0 0.0
2017-Aug-27 12:01S 27°27' E 153°06'0 0.0
2017-Aug-27 11:31S 27°27' E 153°06'0 0.0
2017-Aug-27 11:01S 27°27' E 153°06'0 0.0
2017-Aug-27 10:31S 27°27' E 153°06'0 0.0
2017-Aug-27 10:01S 27°27' E 153°06'0 0.0
2017-Aug-27 09:31S 27°27' E 153°06'0 0.0
2017-Aug-27 09:01S 27°27' E 153°06'0 0.0
2017-Aug-27 08:30S 27°27' E 153°06'0 0.0
2017-Aug-27 08:01S 27°27' E 153°06'0 0.0
2017-Aug-27 07:30S 27°27' E 153°06'0 0.0
2017-Aug-27 07:00S 27°27' E 153°06'0 0.0
2017-Aug-27 06:29S 27°27' E 153°06'0 0.0
2017-Aug-27 06:00S 27°27' E 153°06'0 0.0
2017-Aug-27 05:13S 27°27' E 153°06'0 0.0
2017-Aug-27 05:00S 27°27' E 153°06'0 0.0
2017-Aug-27 04:28S 27°27' E 153°06'0 0.0
2017-Aug-27 03:58S 27°27' E 153°06'0 0.0
2017-Aug-27 03:29S 27°27' E 153°06'0 0.0
2017-Aug-27 02:58S 27°27' E 153°06'0 0.0
2017-Aug-27 02:07S 27°27' E 153°06'0 0.0
2017-Aug-27 01:59S 27°27' E 153°06'0 0.0
2017-Aug-27 01:14S 27°27' E 153°06'0 0.0
2017-Aug-26 22:30S 27°27' E 153°06'0 0.0
2017-Aug-26 21:55S 27°27' E 153°06'0 0.0
2017-Aug-26 21:30S 27°27' E 153°06'0 0.0
2017-Aug-26 20:59S 27°27' E 153°06'0 0.0
2017-Aug-26 20:31S 27°27' E 153°06'0 0.0
2017-Aug-26 20:01S 27°27' E 153°06'0 0.0
2017-Aug-26 19:30S 27°27' E 153°06'0 0.0
2017-Aug-26 19:01S 27°27' E 153°06'0 0.0
2017-Aug-26 18:31S 27°27' E 153°06'0 0.0
2017-Aug-26 18:01S 27°27' E 153°06'0 0.0
2017-Aug-26 17:31S 27°27' E 153°06'0 0.0
2017-Aug-26 17:01S 27°27' E 153°06'0 0.0
2017-Aug-26 16:31S 27°27' E 153°06'0 0.0
2017-Aug-26 16:01S 27°27' E 153°06'0 0.0
2017-Aug-26 15:31S 27°27' E 153°06'0 0.0
2017-Aug-26 15:01S 27°27' E 153°06'0 0.0
2017-Aug-26 14:01S 27°27' E 153°06'0 0.0
2017-Aug-26 13:30S 27°27' E 153°06'0 0.0
2017-Aug-26 13:00S 27°27' E 153°06'0 0.0
2017-Aug-26 12:31S 27°27' E 153°06'0 0.0
2017-Aug-26 12:00S 27°27' E 153°06'0 0.0
2017-Aug-26 11:31S 27°27' E 153°06'0 0.0
2017-Aug-26 11:00S 27°27' E 153°06'0 0.0
2017-Aug-26 10:30S 27°27' E 153°06'0 0.0
2017-Aug-26 10:00S 27°27' E 153°06'0 0.0
2017-Aug-26 09:31S 27°27' E 153°06'0 0.0
2017-Aug-26 09:01S 27°27' E 153°06'0 0.0
2017-Aug-26 08:31S 27°27' E 153°06'0 0.0
2017-Aug-26 08:00S 27°27' E 153°06'0 0.0
2017-Aug-26 07:30S 27°27' E 153°06'0 0.0
2017-Aug-26 07:00S 27°27' E 153°06'0 0.0
2017-Aug-26 06:28S 27°27' E 153°06'0 0.0
2017-Aug-25 22:10S 27°27' E 153°06'0 0.0
2017-Aug-25 21:57S 27°27' E 153°06'0 0.0
2017-Aug-25 21:30S 27°27' E 153°06'0 0.0
2017-Aug-25 21:00S 27°27' E 153°06'0 0.0
2017-Aug-25 20:30S 27°27' E 153°06'0 0.0
2017-Aug-25 20:01S 27°27' E 153°06'0 0.0
2017-Aug-25 19:31S 27°27' E 153°06'0 0.0
2017-Aug-25 19:00S 27°27' E 153°06'0 0.0
2017-Aug-25 18:30S 27°27' E 153°06'0 0.0
2017-Aug-25 18:00S 27°27' E 153°06'0 0.0
2017-Aug-25 17:31S 27°27' E 153°06'0 0.0
2017-Aug-25 17:01S 27°27' E 153°06'0 0.0
2017-Aug-25 16:31S 27°27' E 153°06'0 0.0
2017-Aug-25 16:01S 27°27' E 153°06'0 0.0
2017-Aug-25 15:31S 27°27' E 153°06'0 0.0
2017-Aug-25 15:01S 27°27' E 153°06'0 0.0
2017-Aug-25 14:01S 27°27' E 153°06'0 0.0
2017-Aug-25 13:30S 27°27' E 153°06'0 0.0
2017-Aug-25 13:00S 27°27' E 153°06'0 0.0
2017-Aug-25 12:30S 27°27' E 153°06'0 0.0
2017-Aug-25 12:00S 27°27' E 153°06'0 0.0
2017-Aug-25 11:31S 27°27' E 153°06'0 0.0
2017-Aug-25 11:00S 27°27' E 153°06'0 0.0
2017-Aug-25 10:30S 27°27' E 153°06'0 0.0
2017-Aug-25 10:01S 27°27' E 153°06'0 0.0
2017-Aug-25 09:30S 27°27' E 153°06'0 0.0
2017-Aug-25 09:01S 27°27' E 153°06'0 0.0
2017-Aug-25 08:30S 27°27' E 153°06'0 0.0
2017-Aug-25 08:01S 27°27' E 153°06'0 0.0
2017-Aug-25 07:30S 27°27' E 153°06'0 0.0
2017-Aug-25 07:00S 27°27' E 153°06'0 0.0
2017-Aug-25 06:29S 27°27' E 153°06'0 0.0
2017-Aug-25 06:01S 27°27' E 153°06'0 0.0
2017-Aug-25 05:30S 27°27' E 153°06'0 0.0
2017-Aug-25 05:00S 27°27' E 153°06'0 0.0
2017-Aug-25 04:30S 27°27' E 153°06'0 0.0
2017-Aug-25 04:00S 27°27' E 153°06'0 0.0
2017-Aug-25 00:13S 27°27' E 153°06'0 0.0
2017-Aug-24 23:56S 27°27' E 153°06'0 0.0
2017-Aug-24 21:51S 27°27' E 153°06'0 0.0
2017-Aug-24 21:30S 27°27' E 153°06'0 0.2
2017-Aug-24 21:01S 27°27' E 153°06'0 0.0
2017-Aug-24 20:30S 27°27' E 153°06'0 0.0
2017-Aug-24 20:01S 27°27' E 153°06'0 0.0
2017-Aug-24 19:31S 27°27' E 153°06'0 0.0
2017-Aug-24 19:01S 27°27' E 153°06'0 0.0
2017-Aug-24 18:31S 27°27' E 153°06'0 0.0
2017-Aug-24 18:01S 27°27' E 153°06'0 0.0
2017-Aug-24 17:31S 27°27' E 153°06'0 0.0
2017-Aug-24 17:01S 27°27' E 153°06'0 0.0
2017-Aug-24 16:31S 27°27' E 153°06'0 0.0
2017-Aug-24 16:01S 27°27' E 153°06'0 0.0
2017-Aug-24 15:31S 27°27' E 153°06'0 0.0
2017-Aug-24 15:01S 27°27' E 153°06'0 0.0
2017-Aug-24 14:31S 27°27' E 153°06'0 0.0
2017-Aug-24 14:01S 27°27' E 153°06'0 0.0
2017-Aug-24 13:31S 27°27' E 153°06'0 0.0
2017-Aug-24 13:01S 27°27' E 153°06'0 0.0
2017-Aug-24 12:31S 27°27' E 153°06'0 0.0
2017-Aug-24 12:01S 27°27' E 153°06'0 0.0
2017-Aug-24 11:31S 27°27' E 153°06'0 0.0
2017-Aug-24 11:01S 27°27' E 153°06'0 0.0
2017-Aug-24 10:31S 27°27' E 153°06'0 0.0
2017-Aug-24 10:01S 27°27' E 153°06'0 0.0
2017-Aug-24 09:31S 27°27' E 153°06'0 0.0
2017-Aug-24 09:01S 27°27' E 153°06'3 5.8
2017-Aug-24 08:30S 27°27' E 153°03'1 2.6
2017-Aug-24 07:59S 27°28' E 153°02'1 2.9
2017-Aug-24 07:28S 27°27' E 153°03'1 2.6
2017-Aug-24 07:00S 27°28' E 153°02'  
Track history (hours):
 
Tides and Currents Weather Stations Pressure Air Temp Water Temp Dewpoint Dewpoint Depression Visibility Wind Speed Wind Dir Waves Ship Positions

Spirit Of Brisbane

Last reported at 2017-Sep-03 05:55 UTC. Time now 2017-Sep-24 16:02 UTC.
Position S 27°28' E 153°02'.
Warning: this ship's position is 21 days out of date.

Length 24 m.

Type: Passenger vessel. MMSI: 503586200.

Date/timePositionNaut miles runAvg speedWind from/ knotsBaromVisibWave heightAir tempDewpointWater temp
2017-Sep-03 05:55S 27°28' E 153°02'1 0.1
2017-Sep-02 08:26S 27°28' E 153°03'3 0.3
2017-Sep-01 23:41S 27°27' E 153°06'0 0.0
2017-Sep-01 23:29S 27°27' E 153°06'0 0.0
2017-Sep-01 23:00S 27°27' E 153°06'0 0.0
2017-Sep-01 22:31S 27°27' E 153°06'0 0.0
2017-Sep-01 21:58S 27°27' E 153°06'0 0.0
2017-Sep-01 21:31S 27°27' E 153°06'0 0.0
2017-Sep-01 21:01S 27°27' E 153°06'0 0.0
2017-Sep-01 20:31S 27°27' E 153°06'0 0.0
2017-Sep-01 20:01S 27°27' E 153°06'0 0.0
2017-Sep-01 19:31S 27°27' E 153°06'0 0.0
2017-Sep-01 19:01S 27°27' E 153°06'0 0.0
2017-Sep-01 18:31S 27°27' E 153°06'0 0.0
2017-Sep-01 18:01S 27°27' E 153°06'0 0.0
2017-Sep-01 17:31S 27°27' E 153°06'0 0.0
2017-Sep-01 17:01S 27°27' E 153°06'0 0.0
2017-Sep-01 16:31S 27°27' E 153°06'0 0.0
2017-Sep-01 16:01S 27°27' E 153°06'0 0.0
2017-Sep-01 15:31S 27°27' E 153°06'0 0.0
2017-Sep-01 15:01S 27°27' E 153°06'0 0.0
2017-Sep-01 14:31S 27°27' E 153°06'0 0.0
2017-Sep-01 14:01S 27°27' E 153°06'0 0.0
2017-Sep-01 13:31S 27°27' E 153°06'0 0.0
2017-Sep-01 13:01S 27°27' E 153°06'0 0.0
2017-Sep-01 12:31S 27°27' E 153°06'0 0.0
2017-Sep-01 12:01S 27°27' E 153°06'0 0.0
2017-Sep-01 11:31S 27°27' E 153°06'0 0.0
2017-Sep-01 11:01S 27°27' E 153°06'0 0.0
2017-Sep-01 10:31S 27°27' E 153°06'0 0.0
2017-Sep-01 10:01S 27°27' E 153°06'0 0.0
2017-Sep-01 09:31S 27°27' E 153°06'0 0.2
2017-Sep-01 09:00S 27°27' E 153°06'4 5.7
2017-Sep-01 08:20S 27°28' E 153°02'0 1.4
2017-Sep-01 07:59S 27°28' E 153°02'0 0.6
2017-Sep-01 07:12S 27°28' E 153°02'1 0.1
2017-Aug-31 08:09S 27°28' E 153°03'0 0.0
2017-Aug-30 09:28S 27°28' E 153°03'1 2.7
2017-Aug-30 09:00S 27°26' E 153°03'0 0.5
2017-Aug-30 08:30S 27°26' E 153°04'2 3.8
2017-Aug-30 07:54S 27°28' E 153°02'0 0.0
2017-Aug-30 06:39S 27°28' E 153°02'1 0.1
2017-Aug-29 20:33S 27°28' E 153°03'0 0.0
2017-Aug-29 17:23S 27°28' E 153°03'0 0.0
2017-Aug-29 16:56S 27°28' E 153°03'0 0.0
2017-Aug-29 16:29S 27°28' E 153°03'0 0.0
2017-Aug-29 09:00S 27°28' E 153°03'0 0.0
2017-Aug-29 08:22S 27°28' E 153°03'1 1.6
2017-Aug-29 07:59S 27°27' E 153°03'2 3.1
2017-Aug-29 07:26S 27°27' E 153°05'2 0.2
2017-Aug-28 20:19S 27°28' E 153°03'0 0.0
2017-Aug-28 19:54S 27°28' E 153°03'0 0.0
2017-Aug-28 19:30S 27°28' E 153°03'0 0.0
2017-Aug-28 19:01S 27°28' E 153°03'0 0.0
2017-Aug-28 18:31S 27°28' E 153°03'0 0.0
2017-Aug-28 17:50S 27°28' E 153°03'0 0.0
2017-Aug-28 17:30S 27°28' E 153°03'0 0.0
2017-Aug-28 17:00S 27°28' E 153°03'0 0.0
2017-Aug-28 16:31S 27°28' E 153°03'0 0.0
2017-Aug-28 16:00S 27°28' E 153°03'0 0.0
2017-Aug-28 15:31S 27°28' E 153°03'0 0.0
2017-Aug-28 15:00S 27°28' E 153°03'0 0.0
2017-Aug-28 14:30S 27°28' E 153°03'0 0.0
2017-Aug-28 14:00S 27°28' E 153°03'0 0.0
2017-Aug-28 13:29S 27°28' E 153°03'0 0.0
2017-Aug-28 09:29S 27°28' E 153°03'1 0.5
2017-Aug-28 08:10S 27°27' E 153°03'1 2.6
2017-Aug-28 07:52S 27°28' E 153°03'3 0.3
2017-Aug-27 22:11S 27°27' E 153°06'0 0.0
2017-Aug-27 21:59S 27°27' E 153°06'0 0.1
2017-Aug-27 21:30S 27°27' E 153°06'0 0.2
2017-Aug-27 21:00S 27°27' E 153°06'0 0.0
2017-Aug-27 20:30S 27°27' E 153°06'0 0.0
2017-Aug-27 20:01S 27°27' E 153°06'0 0.0
2017-Aug-27 19:31S 27°27' E 153°06'0 0.0
2017-Aug-27 19:01S 27°27' E 153°06'0 0.0
2017-Aug-27 18:31S 27°27' E 153°06'0 0.0
2017-Aug-27 18:01S 27°27' E 153°06'0 0.0
2017-Aug-27 17:31S 27°27' E 153°06'0 0.0
2017-Aug-27 17:01S 27°27' E 153°06'0 0.0
2017-Aug-27 16:31S 27°27' E 153°06'0 0.0
2017-Aug-27 16:01S 27°27' E 153°06'0 0.0
2017-Aug-27 15:31S 27°27' E 153°06'0 0.0
2017-Aug-27 15:01S 27°27' E 153°06'0 0.0
2017-Aug-27 14:31S 27°27' E 153°06'0 0.0
2017-Aug-27 14:01S 27°27' E 153°06'0 0.0
2017-Aug-27 13:31S 27°27' E 153°06'0 0.0
2017-Aug-27 13:01S 27°27' E 153°06'0 0.0
2017-Aug-27 12:31S 27°27' E 153°06'0 0.0
2017-Aug-27 12:01S 27°27' E 153°06'0 0.0
2017-Aug-27 11:31S 27°27' E 153°06'0 0.0
2017-Aug-27 11:01S 27°27' E 153°06'0 0.0
2017-Aug-27 10:31S 27°27' E 153°06'0 0.0
2017-Aug-27 10:01S 27°27' E 153°06'0 0.0
2017-Aug-27 09:31S 27°27' E 153°06'0 0.0
2017-Aug-27 09:01S 27°27' E 153°06'0 0.0
2017-Aug-27 08:30S 27°27' E 153°06'0 0.0
2017-Aug-27 08:01S 27°27' E 153°06'0 0.0
2017-Aug-27 07:30S 27°27' E 153°06'0 0.0
2017-Aug-27 07:00S 27°27' E 153°06'0 0.0
2017-Aug-27 06:29S 27°27' E 153°06'0 0.0
2017-Aug-27 06:00S 27°27' E 153°06'0 0.0
2017-Aug-27 05:13S 27°27' E 153°06'0 0.0
2017-Aug-27 05:00S 27°27' E 153°06'0 0.0
2017-Aug-27 04:28S 27°27' E 153°06'0 0.0
2017-Aug-27 03:58S 27°27' E 153°06'0 0.0
2017-Aug-27 03:29S 27°27' E 153°06'0 0.0
2017-Aug-27 02:58S 27°27' E 153°06'0 0.0
2017-Aug-27 02:07S 27°27' E 153°06'0 0.0
2017-Aug-27 01:59S 27°27' E 153°06'0 0.0
2017-Aug-27 01:14S 27°27' E 153°06'0 0.0
2017-Aug-26 22:30S 27°27' E 153°06'0 0.0
2017-Aug-26 21:55S 27°27' E 153°06'0 0.0
2017-Aug-26 21:30S 27°27' E 153°06'0 0.0
2017-Aug-26 20:59S 27°27' E 153°06'0 0.0
2017-Aug-26 20:31S 27°27' E 153°06'0 0.0
2017-Aug-26 20:01S 27°27' E 153°06'0 0.0
2017-Aug-26 19:30S 27°27' E 153°06'0 0.0
2017-Aug-26 19:01S 27°27' E 153°06'0 0.0
2017-Aug-26 18:31S 27°27' E 153°06'0 0.0
2017-Aug-26 18:01S 27°27' E 153°06'0 0.0
2017-Aug-26 17:31S 27°27' E 153°06'0 0.0
2017-Aug-26 17:01S 27°27' E 153°06'0 0.0
2017-Aug-26 16:31S 27°27' E 153°06'0 0.0
2017-Aug-26 16:01S 27°27' E 153°06'0 0.0
2017-Aug-26 15:31S 27°27' E 153°06'0 0.0
2017-Aug-26 15:01S 27°27' E 153°06'0 0.0
2017-Aug-26 14:01S 27°27' E 153°06'0 0.0
2017-Aug-26 13:30S 27°27' E 153°06'0 0.0
2017-Aug-26 13:00S 27°27' E 153°06'0 0.0
2017-Aug-26 12:31S 27°27' E 153°06'0 0.0
2017-Aug-26 12:00S 27°27' E 153°06'0 0.0
2017-Aug-26 11:31S 27°27' E 153°06'0 0.0
2017-Aug-26 11:00S 27°27' E 153°06'0 0.0
2017-Aug-26 10:30S 27°27' E 153°06'0 0.0
2017-Aug-26 10:00S 27°27' E 153°06'0 0.0
2017-Aug-26 09:31S 27°27' E 153°06'0 0.0
2017-Aug-26 09:01S 27°27' E 153°06'0 0.0
2017-Aug-26 08:31S 27°27' E 153°06'0 0.0
2017-Aug-26 08:00S 27°27' E 153°06'0 0.0
2017-Aug-26 07:30S 27°27' E 153°06'0 0.0
2017-Aug-26 07:00S 27°27' E 153°06'0 0.0
2017-Aug-26 06:28S 27°27' E 153°06'0 0.0
2017-Aug-25 22:10S 27°27' E 153°06'0 0.0
2017-Aug-25 21:57S 27°27' E 153°06'0 0.0
2017-Aug-25 21:30S 27°27' E 153°06'0 0.0
2017-Aug-25 21:00S 27°27' E 153°06'0 0.0
2017-Aug-25 20:30S 27°27' E 153°06'0 0.0
2017-Aug-25 20:01S 27°27' E 153°06'0 0.0
2017-Aug-25 19:31S 27°27' E 153°06'0 0.0
2017-Aug-25 19:00S 27°27' E 153°06'0 0.0
2017-Aug-25 18:30S 27°27' E 153°06'0 0.0
2017-Aug-25 18:00S 27°27' E 153°06'0 0.0
2017-Aug-25 17:31S 27°27' E 153°06'0 0.0
2017-Aug-25 17:01S 27°27' E 153°06'0 0.0
2017-Aug-25 16:31S 27°27' E 153°06'0 0.0
2017-Aug-25 16:01S 27°27' E 153°06'0 0.0
2017-Aug-25 15:31S 27°27' E 153°06'0 0.0
2017-Aug-25 15:01S 27°27' E 153°06'0 0.0
2017-Aug-25 14:01S 27°27' E 153°06'0 0.0
2017-Aug-25 13:30S 27°27' E 153°06'0 0.0
2017-Aug-25 13:00S 27°27' E 153°06'0 0.0
2017-Aug-25 12:30S 27°27' E 153°06'0 0.0
2017-Aug-25 12:00S 27°27' E 153°06'0 0.0
2017-Aug-25 11:31S 27°27' E 153°06'0 0.0
2017-Aug-25 11:00S 27°27' E 153°06'0 0.0
2017-Aug-25 10:30S 27°27' E 153°06'0 0.0
2017-Aug-25 10:01S 27°27' E 153°06'0 0.0
2017-Aug-25 09:30S 27°27' E 153°06'0 0.0
2017-Aug-25 09:01S 27°27' E 153°06'0 0.0
2017-Aug-25 08:30S 27°27' E 153°06'0 0.0
2017-Aug-25 08:01S 27°27' E 153°06'0 0.0
2017-Aug-25 07:30S 27°27' E 153°06'0 0.0
2017-Aug-25 07:00S 27°27' E 153°06'0 0.0
2017-Aug-25 06:29S 27°27' E 153°06'0 0.0
2017-Aug-25 06:01S 27°27' E 153°06'0 0.0
2017-Aug-25 05:30S 27°27' E 153°06'0 0.0
2017-Aug-25 05:00S 27°27' E 153°06'0 0.0
2017-Aug-25 04:30S 27°27' E 153°06'0 0.0
2017-Aug-25 04:00S 27°27' E 153°06'0 0.0
2017-Aug-25 00:13S 27°27' E 153°06'0 0.0
2017-Aug-24 23:56S 27°27' E 153°06'0 0.0
2017-Aug-24 21:51S 27°27' E 153°06'0 0.0
2017-Aug-24 21:30S 27°27' E 153°06'0 0.2
2017-Aug-24 21:01S 27°27' E 153°06'0 0.0
2017-Aug-24 20:30S 27°27' E 153°06'0 0.0
2017-Aug-24 20:01S 27°27' E 153°06'0 0.0
2017-Aug-24 19:31S 27°27' E 153°06'0 0.0
2017-Aug-24 19:01S 27°27' E 153°06'0 0.0
2017-Aug-24 18:31S 27°27' E 153°06'0 0.0
2017-Aug-24 18:01S 27°27' E 153°06'0 0.0
2017-Aug-24 17:31S 27°27' E 153°06'0 0.0
2017-Aug-24 17:01S 27°27' E 153°06'0 0.0
2017-Aug-24 16:31S 27°27' E 153°06'0 0.0
2017-Aug-24 16:01S 27°27' E 153°06'0 0.0
2017-Aug-24 15:31S 27°27' E 153°06'0 0.0
2017-Aug-24 15:01S 27°27' E 153°06'0 0.0
2017-Aug-24 14:31S 27°27' E 153°06'0 0.0
2017-Aug-24 14:01S 27°27' E 153°06'0 0.0
2017-Aug-24 13:31S 27°27' E 153°06'0 0.0
2017-Aug-24 13:01S 27°27' E 153°06'0 0.0
2017-Aug-24 12:31S 27°27' E 153°06'0 0.0
2017-Aug-24 12:01S 27°27' E 153°06'0 0.0
2017-Aug-24 11:31S 27°27' E 153°06'0 0.0
2017-Aug-24 11:01S 27°27' E 153°06'0 0.0
2017-Aug-24 10:31S 27°27' E 153°06'0 0.0
2017-Aug-24 10:01S 27°27' E 153°06'0 0.0
2017-Aug-24 09:31S 27°27' E 153°06'0 0.0
2017-Aug-24 09:01S 27°27' E 153°06'3 5.8
2017-Aug-24 08:30S 27°27' E 153°03'1 2.6
2017-Aug-24 07:59S 27°28' E 153°02'1 2.9
2017-Aug-24 07:28S 27°27' E 153°03'1 2.6
2017-Aug-24 07:00S 27°28' E 153°02'  

Dump ship's entire track history